sensor_id;sensor_type;location;lat;lon;timestamp;pressure;altitude;pressure_sealevel;temperature;humidity
55301;BME280;58302;51.446;-2.000;2024-02-15T00:00:26;100481.56;;;11.34;100.00
55301;BME280;58302;51.446;-2.000;2024-02-15T00:02:55;100465.78;;;11.31;100.00
55301;BME280;58302;51.446;-2.000;2024-02-15T00:08:49;100479.41;;;11.36;100.00
55301;BME280;58302;51.446;-2.000;2024-02-15T00:11:17;100476.94;;;11.34;100.00
55301;BME280;58302;51.446;-2.000;2024-02-15T00:13:58;100467.16;;;11.33;100.00
55301;BME280;58302;51.446;-2.000;2024-02-15T00:16:30;100471.50;;;11.34;100.00
55301;BME280;58302;51.446;-2.000;2024-02-15T00:19:20;100476.44;;;11.38;100.00
55301;BME280;58302;51.446;-2.000;2024-02-15T00:22:21;100483.75;;;11.37;100.00
55301;BME280;58302;51.446;-2.000;2024-02-15T00:31:17;100486.47;;;11.37;100.00
55301;BME280;58302;51.446;-2.000;2024-02-15T00:37:01;100467.72;;;11.41;100.00
55301;BME280;58302;51.446;-2.000;2024-02-15T00:39:31;100454.66;;;11.38;100.00
55301;BME280;58302;51.446;-2.000;2024-02-15T00:42:15;100459.00;;;11.39;100.00
55301;BME280;58302;51.446;-2.000;2024-02-15T00:44:42;100472.63;;;11.39;100.00
55301;BME280;58302;51.446;-2.000;2024-02-15T00:47:09;100470.41;;;11.35;100.00
55301;BME280;58302;51.446;-2.000;2024-02-15T00:49:37;100468.78;;;11.34;100.00
55301;BME280;58302;51.446;-2.000;2024-02-15T00:52:04;100474.22;;;11.34;100.00
55301;BME280;58302;51.446;-2.000;2024-02-15T00:54:32;100471.50;;;11.34;100.00
55301;BME280;58302;51.446;-2.000;2024-02-15T00:57:02;100470.41;;;11.35;100.00
55301;BME280;58302;51.446;-2.000;2024-02-15T00:59:39;100466.88;;;11.30;100.00
55301;BME280;58302;51.446;-2.000;2024-02-15T01:02:08;100469.31;;;11.37;100.00
55301;BME280;58302;51.446;-2.000;2024-02-15T01:04:39;100473.13;;;11.35;100.00
55301;BME280;58302;51.446;-2.000;2024-02-15T01:07:06;100445.09;;;11.30;100.00
55301;BME280;58302;51.446;-2.000;2024-02-15T01:09:34;100446.75;;;11.36;100.00
55301;BME280;58302;51.446;-2.000;2024-02-15T01:12:00;100431.22;;;11.31;100.00
55301;BME280;58302;51.446;-2.000;2024-02-15T01:14:29;100430.97;;;11.33;100.00
55301;BME280;58302;51.446;-2.000;2024-02-15T01:16:56;100421.19;;;11.32;100.00
55301;BME280;58302;51.446;-2.000;2024-02-15T01:19:23;100420.91;;;11.33;100.00
55301;BME280;58302;51.446;-2.000;2024-02-15T01:21:52;100420.34;;;11.31;100.00
55301;BME280;58302;51.446;-2.000;2024-02-15T01:24:45;100423.63;;;11.33;100.00
55301;BME280;58302;51.446;-2.000;2024-02-15T01:27:14;100415.47;;;11.33;100.00
55301;BME280;58302;51.446;-2.000;2024-02-15T01:29:41;100402.97;;;11.32;100.00
55301;BME280;58302;51.446;-2.000;2024-02-15T01:32:08;100404.59;;;11.33;100.00
55301;BME280;58302;51.446;-2.000;2024-02-15T01:34:34;100389.34;;;11.32;100.00
55301;BME280;58302;51.446;-2.000;2024-02-15T01:37:01;100398.31;;;11.33;100.00
55301;BME280;58302;51.446;-2.000;2024-02-15T01:39:28;100403.78;;;11.33;100.00
55301;BME280;58302;51.446;-2.000;2024-02-15T01:41:54;100402.97;;;11.32;100.00
55301;BME280;58302;51.446;-2.000;2024-02-15T01:44:22;100399.69;;;11.35;100.00
55301;BME280;58302;51.446;-2.000;2024-02-15T01:47:06;100393.69;;;11.33;100.00
55301;BME280;58302;51.446;-2.000;2024-02-15T01:49:57;100397.50;;;11.32;100.00
55301;BME280;58302;51.446;-2.000;2024-02-15T01:52:27;100401.06;;;11.33;100.00
55301;BME280;58302;51.446;-2.000;2024-02-15T01:54:54;100399.41;;;11.37;100.00
55301;BME280;58302;51.446;-2.000;2024-02-15T01:57:22;100404.03;;;11.42;100.00
55301;BME280;58302;51.446;-2.000;2024-02-15T01:59:53;100396.97;;;11.46;100.00
55301;BME280;58302;51.446;-2.000;2024-02-15T02:02:22;100393.44;;;11.50;100.00
55301;BME280;58302;51.446;-2.000;2024-02-15T02:04:53;100391.00;;;11.49;100.00
55301;BME280;58302;51.446;-2.000;2024-02-15T02:07:38;100391.53;;;11.51;100.00
55301;BME280;58302;51.446;-2.000;2024-02-15T02:10:04;100384.97;;;11.52;100.00
55301;BME280;58302;51.446;-2.000;2024-02-15T02:12:39;100382.53;;;11.50;100.00
55301;BME280;58302;51.446;-2.000;2024-02-15T02:15:11;100382.53;;;11.50;100.00
55301;BME280;58302;51.446;-2.000;2024-02-15T02:17:50;100377.63;;;11.47;100.00
55301;BME280;58302;51.446;-2.000;2024-02-15T02:20:20;100369.75;;;11.46;100.00
55301;BME280;58302;51.446;-2.000;2024-02-15T02:22:50;100370.28;;;11.48;100.00
55301;BME280;58302;51.446;-2.000;2024-02-15T02:25:18;100376.81;;;11.52;100.00
55301;BME280;58302;51.446;-2.000;2024-02-15T02:27:46;100372.75;;;11.54;100.00
55301;BME280;58302;51.446;-2.000;2024-02-15T02:30:15;100373.00;;;11.53;100.00
55301;BME280;58302;51.446;-2.000;2024-02-15T02:32:45;100364.31;;;11.51;100.00
55301;BME280;58302;51.446;-2.000;2024-02-15T02:35:14;100359.38;;;11.53;100.00
55301;BME280;58302;51.446;-2.000;2024-02-15T02:37:42;100364.00;;;11.57;100.00
55301;BME280;58302;51.446;-2.000;2024-02-15T02:40:09;100355.03;;;11.57;100.00
55301;BME280;58302;51.446;-2.000;2024-02-15T02:42:36;100357.75;;;11.62;100.00
55301;BME280;58302;51.446;-2.000;2024-02-15T02:45:11;100344.44;;;11.60;100.00
55301;BME280;58302;51.446;-2.000;2024-02-15T02:47:37;100344.97;;;11.63;100.00
55301;BME280;58302;51.446;-2.000;2024-02-15T02:50:04;100346.59;;;11.64;100.00
55301;BME280;58302;51.446;-2.000;2024-02-15T02:52:31;100342.75;;;11.65;100.00
55301;BME280;58302;51.446;-2.000;2024-02-15T02:54:57;100349.88;;;11.66;100.00
55301;BME280;58302;51.446;-2.000;2024-02-15T02:57:23;100344.94;;;11.68;100.00
55301;BME280;58302;51.446;-2.000;2024-02-15T02:59:49;100350.13;;;11.64;100.00
55301;BME280;58302;51.446;-2.000;2024-02-15T03:02:16;100346.88;;;11.67;100.00
55301;BME280;58302;51.446;-2.000;2024-02-15T03:04:43;100345.75;;;11.68;100.00
55301;BME280;58302;51.446;-2.000;2024-02-15T03:07:11;100339.78;;;11.71;100.00
55301;BME280;58302;51.446;-2.000;2024-02-15T03:09:42;100335.44;;;11.70;100.00
55301;BME280;58302;51.446;-2.000;2024-02-15T03:12:08;100340.88;;;11.70;100.00
55301;BME280;58302;51.446;-2.000;2024-02-15T03:14:35;100348.47;;;11.73;100.00
55301;BME280;58302;51.446;-2.000;2024-02-15T03:17:01;100345.22;;;11.71;100.00
55301;BME280;58302;51.446;-2.000;2024-02-15T03:19:39;100336.50;;;11.74;100.00
55301;BME280;58302;51.446;-2.000;2024-02-15T03:22:13;100331.06;;;11.74;100.00
55301;BME280;58302;51.446;-2.000;2024-02-15T03:28:10;100333.22;;;11.77;100.00
55301;BME280;58302;51.446;-2.000;2024-02-15T03:30:51;100323.44;;;11.76;100.00
55301;BME280;58302;51.446;-2.000;2024-02-15T03:33:23;100315.50;;;11.80;100.00
55301;BME280;58302;51.446;-2.000;2024-02-15T03:35:54;100322.34;;;11.77;100.00
55301;BME280;58302;51.446;-2.000;2024-02-15T03:38:25;100320.16;;;11.79;100.00
55301;BME280;58302;51.446;-2.000;2024-02-15T03:41:19;100308.44;;;11.79;100.00
55301;BME280;58302;51.446;-2.000;2024-02-15T03:43:59;100296.75;;;11.78;100.00
55301;BME280;58302;51.446;-2.000;2024-02-15T03:49:28;100300.28;;;11.74;100.00
55301;BME280;58302;51.446;-2.000;2024-02-15T03:52:12;100310.63;;;11.77;100.00
55301;BME280;58302;51.446;-2.000;2024-02-15T03:54:38;100313.88;;;11.79;100.00
55301;BME280;58302;51.446;-2.000;2024-02-15T03:57:04;100317.44;;;11.79;100.00
55301;BME280;58302;51.446;-2.000;2024-02-15T03:59:32;100324.28;;;11.82;100.00
55301;BME280;58302;51.446;-2.000;2024-02-15T04:02:00;100326.13;;;11.86;100.00
55301;BME280;58302;51.446;-2.000;2024-02-15T04:04:29;100320.44;;;11.88;100.00
55301;BME280;58302;51.446;-2.000;2024-02-15T04:06:56;100324.78;;;11.89;100.00
55301;BME280;58302;51.446;-2.000;2024-02-15T04:09:22;100321.78;;;11.91;100.00
55301;BME280;58302;51.446;-2.000;2024-02-15T04:11:48;100325.31;;;11.96;100.00
55301;BME280;58302;51.446;-2.000;2024-02-15T04:14:19;100326.13;;;11.97;100.00
55301;BME280;58302;51.446;-2.000;2024-02-15T04:16:45;100330.44;;;12.03;100.00
55301;BME280;58302;51.446;-2.000;2024-02-15T04:19:11;100337.56;;;12.04;100.00
55301;BME280;58302;51.446;-2.000;2024-02-15T04:21:37;100337.78;;;12.07;100.00
55301;BME280;58302;51.446;-2.000;2024-02-15T04:24:04;100338.06;;;12.11;100.00
55301;BME280;58302;51.446;-2.000;2024-02-15T04:26:32;100336.69;;;12.13;100.00
55301;BME280;58302;51.446;-2.000;2024-02-15T04:29:00;100344.03;;;12.18;100.00
55301;BME280;58302;51.446;-2.000;2024-02-15T04:31:27;100338.31;;;12.20;100.00
55301;BME280;58302;51.446;-2.000;2024-02-15T04:33:54;100342.91;;;12.24;100.00
55301;BME280;58302;51.446;-2.000;2024-02-15T04:36:20;100348.34;;;12.24;100.00
55301;BME280;58302;51.446;-2.000;2024-02-15T04:38:50;100360.84;;;12.30;100.00
55301;BME280;58302;51.446;-2.000;2024-02-15T04:41:17;100351.06;;;12.29;100.00
55301;BME280;58302;51.446;-2.000;2024-02-15T04:43:49;100347.53;;;12.29;100.00
55301;BME280;58302;51.446;-2.000;2024-02-15T04:46:16;100351.63;;;12.31;100.00
55301;BME280;58302;51.446;-2.000;2024-02-15T04:48:43;100344.78;;;12.29;100.00
55301;BME280;58302;51.446;-2.000;2024-02-15T04:51:10;100354.88;;;12.33;100.00
55301;BME280;58302;51.446;-2.000;2024-02-15T04:53:39;100353.75;;;12.34;100.00
55301;BME280;58302;51.446;-2.000;2024-02-15T04:56:07;100353.75;;;12.34;100.00
55301;BME280;58302;51.446;-2.000;2024-02-15T04:58:42;100355.13;;;12.37;100.00
55301;BME280;58302;51.446;-2.000;2024-02-15T05:01:15;100359.19;;;12.39;100.00
55301;BME280;58302;51.446;-2.000;2024-02-15T05:03:44;100373.63;;;12.40;100.00
55301;BME280;58302;51.446;-2.000;2024-02-15T05:06:11;100361.63;;;12.41;100.00
55301;BME280;58302;51.446;-2.000;2024-02-15T05:08:39;100361.09;;;12.39;100.00
55301;BME280;58302;51.446;-2.000;2024-02-15T05:11:10;100365.16;;;12.42;100.00
55301;BME280;58302;51.446;-2.000;2024-02-15T05:13:45;100350.47;;;12.43;100.00
55301;BME280;58302;51.446;-2.000;2024-02-15T05:16:14;100369.53;;;12.48;100.00
55301;BME280;58302;51.446;-2.000;2024-02-15T05:18:41;100353.44;;;12.46;100.00
55301;BME280;58302;51.446;-2.000;2024-02-15T05:21:08;100366.78;;;12.53;100.00
55301;BME280;58302;51.446;-2.000;2024-02-15T05:23:37;100354.81;;;12.49;100.00
55301;BME280;58302;51.446;-2.000;2024-02-15T05:26:06;100348.53;;;12.48;100.00
55301;BME280;58302;51.446;-2.000;2024-02-15T05:28:32;100350.69;;;12.51;100.00
55301;BME280;58302;51.446;-2.000;2024-02-15T05:31:15;100344.41;;;12.51;100.00
55301;BME280;58302;51.446;-2.000;2024-02-15T05:33:49;100344.97;;;12.53;100.00
55301;BME280;58302;51.446;-2.000;2024-02-15T05:36:20;100335.13;;;12.52;100.00
55301;BME280;58302;51.446;-2.000;2024-02-15T05:38:54;100334.59;;;12.55;100.00
55301;BME280;58302;51.446;-2.000;2024-02-15T05:41:20;100338.41;;;12.54;100.00
55301;BME280;58302;51.446;-2.000;2024-02-15T05:43:47;100324.78;;;12.54;100.00
55301;BME280;58302;51.446;-2.000;2024-02-15T05:46:19;100319.34;;;12.54;100.00
55301;BME280;58302;51.446;-2.000;2024-02-15T05:48:48;100325.03;;;12.52;100.00
55301;BME280;58302;51.446;-2.000;2024-02-15T05:51:15;100319.56;;;12.57;100.00
55301;BME280;58302;51.446;-2.000;2024-02-15T05:53:41;100320.69;;;12.51;100.00
55301;BME280;58302;51.446;-2.000;2024-02-15T05:56:08;100314.44;;;12.51;100.00
55301;BME280;58302;51.446;-2.000;2024-02-15T05:58:36;100310.88;;;12.55;100.00
55301;BME280;58302;51.446;-2.000;2024-02-15T06:01:03;100316.06;;;12.52;100.00
55301;BME280;58302;51.446;-2.000;2024-02-15T06:03:34;100303.53;;;12.51;100.00
55301;BME280;58302;51.446;-2.000;2024-02-15T06:06:00;100307.88;;;12.52;100.00
55301;BME280;58302;51.446;-2.000;2024-02-15T06:08:28;100301.91;;;12.50;100.00
55301;BME280;58302;51.446;-2.000;2024-02-15T06:10:58;100300.00;;;12.50;100.00
55301;BME280;58302;51.446;-2.000;2024-02-15T06:13:25;100292.88;;;12.54;100.00
55301;BME280;58302;51.446;-2.000;2024-02-15T06:15:52;100294.25;;;12.52;100.00
55301;BME280;58302;51.446;-2.000;2024-02-15T06:18:28;100295.06;;;12.52;100.00
55301;BME280;58302;51.446;-2.000;2024-02-15T06:20:55;100287.19;;;12.51;100.00
55301;BME280;58302;51.446;-2.000;2024-02-15T06:23:26;100281.44;;;12.52;100.00
55301;BME280;58302;51.446;-2.000;2024-02-15T06:25:56;100287.72;;;12.53;100.00
55301;BME280;58302;51.446;-2.000;2024-02-15T06:28:24;100290.44;;;12.53;100.00
55301;BME280;58302;51.446;-2.000;2024-02-15T06:31:10;100279.00;;;12.51;100.00
55301;BME280;58302;51.446;-2.000;2024-02-15T06:33:58;100276.56;;;12.49;100.00
55301;BME280;58302;51.446;-2.000;2024-02-15T06:36:56;100281.72;;;12.51;100.00
55301;BME280;58302;51.446;-2.000;2024-02-15T06:39:44;100280.66;;;12.47;100.00
55301;BME280;58302;51.446;-2.000;2024-02-15T06:42:19;100277.66;;;12.48;100.00
55301;BME280;58302;51.446;-2.000;2024-02-15T06:44:47;100280.94;;;12.45;100.00
55301;BME280;58302;51.446;-2.000;2024-02-15T06:47:23;100275.22;;;12.42;100.00
55301;BME280;58302;51.446;-2.000;2024-02-15T06:49:49;100274.16;;;12.43;100.00
55301;BME280;58302;51.446;-2.000;2024-02-15T06:52:17;100276.59;;;12.44;100.00
55301;BME280;58302;51.446;-2.000;2024-02-15T06:54:44;100275.78;;;12.44;100.00
55301;BME280;58302;51.446;-2.000;2024-02-15T06:57:10;100261.91;;;12.35;100.00
55301;BME280;58302;51.446;-2.000;2024-02-15T06:59:36;100248.06;;;12.31;100.00
55301;BME280;58302;51.446;-2.000;2024-02-15T07:02:05;100244.25;;;12.27;100.00
55301;BME280;58302;51.446;-2.000;2024-02-15T07:04:31;100230.16;;;12.20;100.00
55301;BME280;58302;51.446;-2.000;2024-02-15T07:06:58;100220.13;;;12.10;100.00
55301;BME280;58302;51.446;-2.000;2024-02-15T07:09:25;100234.84;;;12.04;100.00
55301;BME280;58302;51.446;-2.000;2024-02-15T07:11:53;100229.94;;;12.06;100.00
55301;BME280;58302;51.446;-2.000;2024-02-15T07:14:19;100219.34;;;12.00;100.00
55301;BME280;58302;51.446;-2.000;2024-02-15T07:16:46;100221.00;;;11.96;100.00
55301;BME280;58302;51.446;-2.000;2024-02-15T07:19:13;100210.97;;;11.86;100.00
55301;BME280;58302;51.446;-2.000;2024-02-15T07:21:40;100207.44;;;11.75;100.00
55301;BME280;58302;51.446;-2.000;2024-02-15T07:24:06;100213.47;;;11.67;100.00
55301;BME280;58302;51.446;-2.000;2024-02-15T07:26:33;100214.06;;;11.54;100.00
55301;BME280;58302;51.446;-2.000;2024-02-15T07:29:01;100211.91;;;11.46;100.00
55301;BME280;58302;51.446;-2.000;2024-02-15T07:31:30;100214.66;;;11.41;100.00
55301;BME280;58302;51.446;-2.000;2024-02-15T07:33:56;100206.50;;;11.30;100.00
55301;BME280;58302;51.446;-2.000;2024-02-15T07:36:23;100224.75;;;11.30;100.00
55301;BME280;58302;51.446;-2.000;2024-02-15T07:38:50;100233.47;;;11.22;100.00
55301;BME280;58302;51.446;-2.000;2024-02-15T07:41:23;100247.63;;;11.14;100.00
55301;BME280;58302;51.446;-2.000;2024-02-15T07:43:50;100250.34;;;11.08;100.00
55301;BME280;58302;51.446;-2.000;2024-02-15T07:46:16;100262.59;;;11.06;100.00
55301;BME280;58302;51.446;-2.000;2024-02-15T07:48:43;100271.56;;;11.06;100.00
55301;BME280;58302;51.446;-2.000;2024-02-15T07:51:14;100281.06;;;11.04;100.00
55301;BME280;58302;51.446;-2.000;2024-02-15T07:53:42;100279.44;;;11.03;100.00
55301;BME280;58302;51.446;-2.000;2024-02-15T07:56:10;100274.56;;;11.05;100.00
55301;BME280;58302;51.446;-2.000;2024-02-15T07:58:43;100269.13;;;11.00;100.00
55301;BME280;58302;51.446;-2.000;2024-02-15T08:01:13;100272.94;;;10.94;100.00
55301;BME280;58302;51.446;-2.000;2024-02-15T08:03:40;100282.16;;;10.88;100.00
55301;BME280;58302;51.446;-2.000;2024-02-15T08:06:12;100274.84;;;10.83;100.00
55301;BME280;58302;51.446;-2.000;2024-02-15T08:08:40;100268.31;;;10.79;100.00
55301;BME280;58302;51.446;-2.000;2024-02-15T08:11:07;100259.84;;;10.75;100.00
55301;BME280;58302;51.446;-2.000;2024-02-15T08:13:46;100261.50;;;10.66;100.00
55301;BME280;58302;51.446;-2.000;2024-02-15T08:16:18;100267.47;;;10.68;100.00
55301;BME280;58302;51.446;-2.000;2024-02-15T08:18:44;100267.75;;;10.62;100.00
55301;BME280;58302;51.446;-2.000;2024-02-15T08:21:12;100264.75;;;10.58;100.00
55301;BME280;58302;51.446;-2.000;2024-02-15T08:23:38;100269.09;;;10.64;100.00
55301;BME280;58302;51.446;-2.000;2024-02-15T08:26:05;100264.47;;;10.65;100.00
55301;BME280;58302;51.446;-2.000;2024-02-15T08:28:31;100269.91;;;10.65;100.00
55301;BME280;58302;51.446;-2.000;2024-02-15T08:30:57;100264.22;;;10.66;100.00
55301;BME280;58302;51.446;-2.000;2024-02-15T08:33:24;100251.69;;;10.70;100.00
55301;BME280;58302;51.446;-2.000;2024-02-15T08:35:50;100245.19;;;10.71;100.00
55301;BME280;58302;51.446;-2.000;2024-02-15T08:38:16;100240.56;;;10.72;100.00
55301;BME280;58302;51.446;-2.000;2024-02-15T08:40:46;100231.34;;;10.78;100.00
55301;BME280;58302;51.446;-2.000;2024-02-15T08:43:13;100216.38;;;10.80;100.00
55301;BME280;58302;51.446;-2.000;2024-02-15T08:45:41;100235.69;;;10.84;100.00
55301;BME280;58302;51.446;-2.000;2024-02-15T08:48:09;100219.09;;;10.86;100.00
55301;BME280;58302;51.446;-2.000;2024-02-15T08:50:35;100219.91;;;10.86;100.00
55301;BME280;58302;51.446;-2.000;2024-02-15T08:53:02;100222.91;;;10.85;100.00
55301;BME280;58302;51.446;-2.000;2024-02-15T08:55:32;100207.69;;;10.84;100.00
55301;BME280;58302;51.446;-2.000;2024-02-15T08:57:58;100211.75;;;10.86;100.00
55301;BME280;58302;51.446;-2.000;2024-02-15T09:00:25;100205.78;;;10.94;100.00
55301;BME280;58302;51.446;-2.000;2024-02-15T09:02:53;100193.81;;;10.95;100.00
55301;BME280;58302;51.446;-2.000;2024-02-15T09:05:20;100202.25;;;10.99;100.00
55301;BME280;58302;51.446;-2.000;2024-02-15T09:07:48;100203.28;;;11.03;100.00
55301;BME280;58302;51.446;-2.000;2024-02-15T09:10:15;100192.97;;;11.00;100.00
55301;BME280;58302;51.446;-2.000;2024-02-15T09:12:43;100194.31;;;11.07;100.00
55301;BME280;58302;51.446;-2.000;2024-02-15T09:15:13;100193.22;;;11.03;100.00
55301;BME280;58302;51.446;-2.000;2024-02-15T09:17:40;100185.63;;;11.05;100.00
55301;BME280;58302;51.446;-2.000;2024-02-15T09:20:12;100172.84;;;11.01;100.00
55301;BME280;58302;51.446;-2.000;2024-02-15T09:22:42;100162.50;;;11.03;100.00
55301;BME280;58302;51.446;-2.000;2024-02-15T09:25:09;100158.16;;;11.02;100.00
55301;BME280;58302;51.446;-2.000;2024-02-15T09:27:35;100149.72;;;11.03;100.00
55301;BME280;58302;51.446;-2.000;2024-02-15T09:30:04;100142.13;;;11.11;100.00
55301;BME280;58302;51.446;-2.000;2024-02-15T09:32:41;100131.47;;;11.19;100.00
55301;BME280;58302;51.446;-2.000;2024-02-15T09:35:11;100132.50;;;11.33;100.00
55301;BME280;58302;51.446;-2.000;2024-02-15T09:37:42;100119.66;;;11.49;100.00
55301;BME280;58302;51.446;-2.000;2024-02-15T09:40:10;100117.97;;;11.58;100.00
55301;BME280;58302;51.446;-2.000;2024-02-15T09:42:38;100108.94;;;11.68;100.00
55301;BME280;58302;51.446;-2.000;2024-02-15T09:45:06;100109.72;;;11.74;100.00
55301;BME280;58302;51.446;-2.000;2024-02-15T09:47:36;100096.06;;;11.79;100.00
55301;BME280;58302;51.446;-2.000;2024-02-15T09:50:06;100082.94;;;11.91;100.00
55301;BME280;58302;51.446;-2.000;2024-02-15T09:52:34;100086.25;;;12.22;100.00
55301;BME280;58302;51.446;-2.000;2024-02-15T09:55:05;100080.91;;;12.41;100.00
55301;BME280;58302;51.446;-2.000;2024-02-15T09:57:34;100066.59;;;12.59;100.00
55301;BME280;58302;51.446;-2.000;2024-02-15T10:00:04;100048.88;;;12.57;100.00
55301;BME280;58302;51.446;-2.000;2024-02-15T10:02:38;100035.09;;;12.48;100.00
55301;BME280;58302;51.446;-2.000;2024-02-15T10:05:06;100005.38;;;12.47;100.00
55301;BME280;58302;51.446;-2.000;2024-02-15T10:07:41;100001.50;;;12.53;100.00
55301;BME280;58302;51.446;-2.000;2024-02-15T10:10:25;99988.50;;;12.45;100.00
55301;BME280;58302;51.446;-2.000;2024-02-15T10:12:53;99966.81;;;12.34;100.00
55301;BME280;58302;51.446;-2.000;2024-02-15T10:15:36;99963.91;;;12.26;100.00
55301;BME280;58302;51.446;-2.000;2024-02-15T10:18:04;99959.31;;;12.21;100.00
55301;BME280;58302;51.446;-2.000;2024-02-15T10:20:31;99955.53;;;12.17;100.00
55301;BME280;58302;51.446;-2.000;2024-02-15T10:25:29;99943.63;;;12.37;100.00
55301;BME280;58302;51.446;-2.000;2024-02-15T10:28:06;99935.41;;;12.42;100.00
55301;BME280;58302;51.446;-2.000;2024-02-15T10:30:43;99932.94;;;12.40;100.00
55301;BME280;58302;51.446;-2.000;2024-02-15T10:33:09;99928.53;;;12.45;100.00
55301;BME280;58302;51.446;-2.000;2024-02-15T10:35:36;99915.66;;;12.50;100.00
55301;BME280;58302;51.446;-2.000;2024-02-15T10:38:07;99909.66;;;12.53;100.00
55301;BME280;58302;51.446;-2.000;2024-02-15T10:40:34;99902.72;;;12.61;100.00
55301;BME280;58302;51.446;-2.000;2024-02-15T10:43:02;99898.25;;;12.70;100.00
55301;BME280;58302;51.446;-2.000;2024-02-15T10:45:30;99888.38;;;12.74;100.00
55301;BME280;58302;51.446;-2.000;2024-02-15T10:47:57;99880.19;;;12.74;100.00
55301;BME280;58302;51.446;-2.000;2024-02-15T10:50:26;99880.72;;;12.76;100.00
55301;BME280;58302;51.446;-2.000;2024-02-15T10:52:58;99875.25;;;12.76;100.00
55301;BME280;58302;51.446;-2.000;2024-02-15T10:58:06;99883.44;;;12.95;100.00
55301;BME280;58302;51.446;-2.000;2024-02-15T11:00:33;99874.81;;;13.07;100.00
55301;BME280;58302;51.446;-2.000;2024-02-15T11:03:08;99881.03;;;13.31;100.00
55301;BME280;58302;51.446;-2.000;2024-02-15T11:05:36;99878.88;;;13.47;100.00
55301;BME280;58302;51.446;-2.000;2024-02-15T11:08:05;99887.63;;;13.63;100.00
55301;BME280;58302;51.446;-2.000;2024-02-15T11:10:36;99882.78;;;13.87;100.00
55301;BME280;58302;51.446;-2.000;2024-02-15T11:13:03;99880.47;;;13.94;100.00
55301;BME280;58302;51.446;-2.000;2024-02-15T11:18:02;99884.75;;;14.28;100.00
55301;BME280;58302;51.446;-2.000;2024-02-15T11:23:02;99903.97;;;14.09;100.00
55301;BME280;58302;51.446;-2.000;2024-02-15T11:25:33;99894.25;;;14.03;100.00
55301;BME280;58302;51.446;-2.000;2024-02-15T11:30:53;99902.16;;;14.32;100.00
55301;BME280;58302;51.446;-2.000;2024-02-15T11:33:32;99896.13;;;14.99;100.00
55301;BME280;58302;51.446;-2.000;2024-02-15T11:36:08;99906.88;;;15.68;100.00
55301;BME280;58302;51.446;-2.000;2024-02-15T11:38:41;99922.66;;;15.93;100.00
55301;BME280;58302;51.446;-2.000;2024-02-15T11:41:09;99951.38;;;16.27;100.00
55301;BME280;58302;51.446;-2.000;2024-02-15T11:46:28;99984.19;;;16.41;100.00
55301;BME280;58302;51.446;-2.000;2024-02-15T11:49:00;100003.59;;;16.53;100.00
55301;BME280;58302;51.446;-2.000;2024-02-15T11:51:36;100018.00;;;16.27;100.00
55301;BME280;58302;51.446;-2.000;2024-02-15T11:54:13;100012.44;;;16.72;100.00
55301;BME280;58302;51.446;-2.000;2024-02-15T11:56:58;100021.25;;;16.69;100.00
55301;BME280;58302;51.446;-2.000;2024-02-15T11:59:40;100010.03;;;16.79;100.00
55301;BME280;58302;51.446;-2.000;2024-02-15T12:02:20;100028.47;;;16.88;100.00
55301;BME280;58302;51.446;-2.000;2024-02-15T12:05:07;100039.19;;;16.67;100.00
55301;BME280;58302;51.446;-2.000;2024-02-15T12:07:52;100025.25;;;16.94;100.00
55301;BME280;58302;51.446;-2.000;2024-02-15T12:10:57;100024.72;;;17.49;100.00
55301;BME280;58302;51.446;-2.000;2024-02-15T12:13:42;100026.81;;;17.52;100.00
55301;BME280;58302;51.446;-2.000;2024-02-15T12:16:26;100017.78;;;17.43;100.00
55301;BME280;58302;51.446;-2.000;2024-02-15T12:19:11;100037.31;;;17.33;100.00
55301;BME280;58302;51.446;-2.000;2024-02-15T12:21:38;100032.16;;;17.57;100.00
55301;BME280;58302;51.446;-2.000;2024-02-15T12:24:07;100045.66;;;17.19;100.00
55301;BME280;58302;51.446;-2.000;2024-02-15T12:26:33;100045.69;;;16.71;100.00
55301;BME280;58302;51.446;-2.000;2024-02-15T12:29:00;100040.47;;;16.38;100.00
55301;BME280;58302;51.446;-2.000;2024-02-15T12:31:27;100026.56;;;16.34;100.00
55301;BME280;58302;51.446;-2.000;2024-02-15T12:34:01;100019.28;;;16.30;100.00
55301;BME280;58302;51.446;-2.000;2024-02-15T12:36:27;100020.53;;;16.24;100.00
55301;BME280;58302;51.446;-2.000;2024-02-15T12:39:01;100018.16;;;16.31;100.00
55301;BME280;58302;51.446;-2.000;2024-02-15T12:41:27;100013.13;;;16.24;100.00
55301;BME280;58302;51.446;-2.000;2024-02-15T12:43:53;100014.59;;;15.99;100.00
55301;BME280;58302;51.446;-2.000;2024-02-15T12:46:20;100011.53;;;16.01;100.00
55301;BME280;58302;51.446;-2.000;2024-02-15T12:48:47;99994.97;;;16.06;100.00
55301;BME280;58302;51.446;-2.000;2024-02-15T12:51:14;99976.66;;;16.55;100.00
55301;BME280;58302;51.446;-2.000;2024-02-15T12:53:40;99984.47;;;17.27;100.00
55301;BME280;58302;51.446;-2.000;2024-02-15T12:56:07;99976.41;;;17.74;100.00
55301;BME280;58302;51.446;-2.000;2024-02-15T12:58:35;100017.50;;;17.88;100.00
55301;BME280;58302;51.446;-2.000;2024-02-15T13:01:01;100026.69;;;17.66;100.00
55301;BME280;58302;51.446;-2.000;2024-02-15T13:03:27;100028.41;;;17.27;100.00
55301;BME280;58302;51.446;-2.000;2024-02-15T13:05:54;100011.16;;;17.61;100.00
55301;BME280;58302;51.446;-2.000;2024-02-15T13:08:20;100009.25;;;17.88;100.00
55301;BME280;58302;51.446;-2.000;2024-02-15T13:10:46;100043.16;;;17.57;100.00
55301;BME280;58302;51.446;-2.000;2024-02-15T13:13:13;100041.84;;;17.46;100.00
55301;BME280;58302;51.446;-2.000;2024-02-15T13:15:43;100019.09;;;17.54;100.00
55301;BME280;58302;51.446;-2.000;2024-02-15T13:18:10;100015.34;;;17.68;100.00
55301;BME280;58302;51.446;-2.000;2024-02-15T13:20:37;100009.19;;;18.23;100.00